Sultan, Washington
Current Conditions -  °F | °C
As of 3:00 PM on Wednesday 22 Oct 2014 (Local Time) from KPAE Reporting Station
Light Rain Light Rain  
Wind Chill: 55°   Ceiling: 2500
Heat Index: 55°   Visibility: 10mi
Dew Point: 52°   Wind: 9mph
Humidity: 89%   Direction: 150°SSE
Pressure: 29.65"   Gusts: NA
Location:  47.86°N, 121.82°W
Report Text: KPAE 222200Z 15008KT 10SM -RA SCT005 BKN025 OVC045 13/11 A2965 RMK AO2 P0000 T01280111
Loading
Personal Weather Stations






























Interactive Weather Map
Tropical Storm Tracking
New forecast layout! Learn more

10-Day Weather Forecast

Advertisements
Track Severe Weather on mobile